Terminal Aerodrome Forecast
Issued by NWS Memphis, TN

Home | Current Version | Previous Version | Text Only | Print | Product List | Glossary On
Versions: 1 2 3 4 5 6 7 8 9 10 11 12 13 14
289
FTUS44 KMEG 251726
TAFMKL
TAF
KMKL 251726Z 2518/2618 22007KT P6SM VCTS SCT040CB BKN250
     FM260000 00000KT P6SM FEW050 BKN250
     FM261500 20004KT P6SM SCT030 BKN250=

USA.gov is the U.S. government's official web portal to all federal, state and local government web resources and services.